Airfield :
LOGIN :

Register | Disclaimer

   EN    FR    IT 

 










Legend :    VFR   Marginal VFR   IFR   Intensive IFR   Very Intensive IFR
Visi :
Ceiling :
>= 8 km
>= 3000ft
5 to 8 km
1000 to 3000 ft
1500m to 5 km
500 to 1000 ft
800 to 1500m
200 to 500 ft
< 800m
< 200 ft
Symbols :   Thunderstorms  Fog  Heavy snow  Heavy precipitations  Wind > 20 kt
SIGMETs :     Misc.  Thunderstorms  Icing  Turbulence  Mountain Waves  Volcanic Ashes







- Airport Elevation : 313 ft
- Download approach charts


LFQA - Reims-Prunay

CURRENT METAR :
  • 150030Z AUTO 26009KT 9999 BKN020 BKN025 BKN200 04/01 Q0994

EXPIRED METARs :
  • 150000Z AUTO 26008KT 230V290 9999 BKN021 04/02 Q0994
  • 142330Z AUTO 28008KT 240V300 9999 BKN020 04/01 Q0994
  • 142300Z AUTO 28013KT 9999 OVC019 05/02 Q0993
  • 142230Z AUTO 28009KT 250V310 9999 BKN021 OVC027 04/01 Q0993
  • 142200Z AUTO 27012KT 9999 OVC024 05/02 Q0993

TAF N/A
No reported NOTAMs for that airfield.
1 SIGMET reported for the Paris FIR (LFFF) :
 
Severe turbulence
LFFF SIGMET 14 VALID 142300/150300 LFPW
LFFF PARIS FIR/UIR SEV TURB FCST SE OF LINE N4700 E00215 - N4730 E00415 FL170/280 STNR WKN=



MET'MAP, your aeronautical weather chart ! - Copyright ORBIFLY December 2007 - Disclaimer

ORBIFLY MET'MAP TEAM :

Programming & Development : Alexandra Zaïnal
Concept & Development : Baudouin d'Aumeries
Co-Development & Prog : Marc-Olivier Méhu
Technical & hardware support : Manuel Goepfert

Contact : metmap@orbifly.com




SOURCES & CREDITS :

   NOAA